Time;durP1;ratioP1;P1;durP2;ratioP2;P2;SDS_P1;SDS_P2;PMS_P1;PMS_P2;Temp;Humidity;BMP_temperature;BMP_pressure;BME280_temperature;BME280_humidity;BME280_pressure;Samples;Min_cycle;Max_cycle;Signal;HPM_P1;HPM_P2
2022/07/05 00:00:54;;;;;;;10.55;6.20;;;;;;;18.15;52.60;101127.09;4988942;28;20054;-54
2022/07/05 00:03:22;;;;;;;9.80;6.30;;;;;;;18.12;52.40;101128.19;4988156;28;20045;-59
2022/07/05 00:05:49;;;;;;;7.95;5.85;;;;;;;18.10;52.79;101119.50;4988252;28;20050;-56
2022/07/05 00:08:17;;;;;;;11.40;6.15;;;;;;;18.08;52.97;101121.41;4987887;28;20685;-56
2022/07/05 00:10:44;;;;;;;17.65;6.97;;;;;;;18.06;53.22;101128.72;4967321;28;21186;-60
2022/07/05 00:13:12;;;;;;;12.50;6.50;;;;;;;18.06;53.80;101130.53;4964630;28;20525;-60
2022/07/05 00:15:39;;;;;;;15.68;6.60;;;;;;;18.02;53.67;101129.94;4986167;28;20122;-57
2022/07/05 00:18:07;;;;;;;10.68;6.47;;;;;;;17.99;54.13;101135.50;4987938;28;20046;-58
2022/07/05 00:20:34;;;;;;;10.50;6.05;;;;;;;17.99;54.31;101130.16;4953253;28;20581;-61
2022/07/05 00:23:01;;;;;;;12.93;6.68;;;;;;;17.97;54.47;101137.47;4987241;28;20065;-59
2022/07/05 00:25:28;;;;;;;10.32;6.78;;;;;;;17.95;54.33;101128.72;4980959;28;20084;-57
2022/07/05 00:27:55;;;;;;;15.85;6.72;;;;;;;17.93;55.10;101136.84;4984651;28;20054;-57
2022/07/05 00:30:23;;;;;;;12.75;6.47;;;;;;;17.91;54.83;101137.94;4986048;28;20061;-58
2022/07/05 00:32:50;;;;;;;11.27;6.22;;;;;;;17.89;54.74;101140.75;4969136;28;20046;-59
2022/07/05 00:35:17;;;;;;;9.07;5.68;;;;;;;17.86;54.72;101134.81;4982142;28;20061;-58
2022/07/05 00:37:44;;;;;;;14.30;5.65;;;;;;;17.84;54.99;101139.44;4981487;28;20047;-58
2022/07/05 00:40:12;;;;;;;8.73;5.60;;;;;;;17.82;55.01;101136.03;4984113;28;20054;-60
2022/07/05 00:42:39;;;;;;;8.48;5.50;;;;;;;17.83;54.79;101140.38;4987233;28;20067;-60
2022/07/05 00:45:07;;;;;;;12.40;6.50;;;;;;;17.80;55.04;101136.16;4985590;28;20047;-60
2022/07/05 00:47:34;;;;;;;11.82;6.20;;;;;;;17.79;55.34;101139.81;4968498;28;20038;-60
2022/07/05 00:50:01;;;;;;;10.80;5.90;;;;;;;17.77;54.96;101148.88;4965038;28;20073;-59
2022/07/05 00:52:28;;;;;;;8.73;5.28;;;;;;;17.74;55.33;101149.09;4986217;28;21229;-61
2022/07/05 00:54:56;;;;;;;14.57;5.90;;;;;;;17.71;55.11;101153.69;4965557;28;20062;-62
2022/07/05 00:57:23;;;;;;;8.18;5.18;;;;;;;17.68;55.80;101159.25;4984195;28;20061;-60
2022/07/05 00:59:51;;;;;;;9.65;5.68;;;;;;;17.65;56.21;101159.53;4968532;28;20054;-61
2022/07/05 01:02:19;;;;;;;9.75;4.80;;;;;;;17.64;55.67;101159.63;4988394;28;20486;-60
2022/07/05 01:04:48;;;;;;;10.10;5.45;;;;;;;17.60;55.78;101158.19;4979716;28;20053;-62
2022/07/05 01:07:18;;;;;;;8.27;5.38;;;;;;;17.58;55.94;101163.63;4985147;28;20058;-58
2022/07/05 01:09:46;;;;;;;7.45;4.93;;;;;;;17.59;55.86;101170.66;4989140;28;20406;-59
2022/07/05 01:12:13;;;;;;;10.18;4.10;;;;;;;17.61;55.66;101171.38;4971223;28;20050;-63
2022/07/05 01:14:42;;;;;;;7.70;3.80;;;;;;;17.62;55.70;101181.06;4989900;28;20052;-59
2022/07/05 01:17:10;;;;;;;4.70;3.33;;;;;;;17.66;55.80;101168.34;4985143;28;20050;-60
2022/07/05 01:19:37;;;;;;;12.93;3.50;;;;;;;17.68;55.46;101171.72;4986753;28;20061;-59
2022/07/05 01:22:12;;;;;;;7.28;3.92;;;;;;;17.66;55.52;101173.69;4961572;28;20046;-61
2022/07/05 01:24:39;;;;;;;6.53;3.38;;;;;;;17.62;55.60;101170.41;4986684;28;20430;-60
2022/07/05 01:27:07;;;;;;;5.95;3.50;;;;;;;17.60;56.19;101166.16;4971660;28;20149;-61
2022/07/05 01:29:34;;;;;;;7.20;2.83;;;;;;;17.59;56.24;101161.81;4986296;28;20058;-60
2022/07/05 01:32:01;;;;;;;6.50;3.75;;;;;;;17.56;56.18;101165.59;4986362;28;20399;-60
2022/07/05 01:34:29;;;;;;;5.30;2.75;;;;;;;17.55;56.69;101174.50;4972896;28;20149;-60
2022/07/05 01:36:56;;;;;;;6.95;2.95;;;;;;;17.53;56.60;101165.81;4981059;28;20069;-61
2022/07/05 01:39:26;;;;;;;8.30;3.50;;;;;;;17.52;56.71;101165.94;4985357;28;20062;-59
2022/07/05 01:41:53;;;;;;;7.78;3.25;;;;;;;17.49;56.57;101159.03;4982571;28;20054;-62
2022/07/05 01:44:20;;;;;;;9.75;2.90;;;;;;;17.45;56.94;101161.09;4989799;28;20046;-60
2022/07/05 01:46:51;;;;;;;5.25;2.78;;;;;;;17.42;57.36;101164.00;4984893;28;20058;-60
2022/07/05 01:49:19;;;;;;;3.95;2.47;;;;;;;17.40;57.22;101162.44;4986647;28;20651;-60
2022/07/05 01:51:58;;;;;;;5.57;2.35;;;;;;;17.36;57.15;101150.34;4991351;28;20153;-61
2022/07/05 01:54:25;;;;;;;7.40;2.75;;;;;;;17.32;57.59;101162.19;4990356;28;20075;-58
2022/07/05 01:56:52;;;;;;;8.10;2.95;;;;;;;17.28;57.64;101158.91;4990710;28;20163;-61
2022/07/05 01:59:20;;;;;;;4.28;2.30;;;;;;;17.23;57.66;101158.44;4986883;28;20069;-60
2022/07/05 02:01:47;;;;;;;6.20;2.20;;;;;;;17.19;57.94;101163.13;4993655;28;20590;-59
2022/07/05 02:04:14;;;;;;;11.85;2.00;;;;;;;17.14;57.84;101152.00;4981947;28;20125;-57
2022/07/05 02:06:42;;;;;;;3.95;2.00;;;;;;;17.11;57.76;101152.28;4970538;28;20423;-60
2022/07/05 02:09:09;;;;;;;6.65;2.00;;;;;;;17.09;57.85;101148.88;4983435;28;20051;-57
2022/07/05 02:11:36;;;;;;;5.25;2.47;;;;;;;17.07;58.37;101152.63;4984893;28;20062;-62
2022/07/05 02:14:03;;;;;;;3.05;1.73;;;;;;;17.03;58.46;101153.84;4992108;28;20066;-59
2022/07/05 02:16:31;;;;;;;5.13;1.98;;;;;;;16.97;58.88;101152.47;4986941;28;20081;-61
2022/07/05 02:18:59;;;;;;;4.43;2.10;;;;;;;16.91;58.97;101150.31;4982461;28;20129;-60
2022/07/05 02:21:26;;;;;;;4.07;1.63;;;;;;;16.87;58.88;101155.00;4984791;28;20065;-60
2022/07/05 02:23:54;;;;;;;4.53;1.70;;;;;;;16.84;59.30;101154.38;4988263;28;20061;-64
2022/07/05 02:26:21;;;;;;;5.45;1.92;;;;;;;16.80;59.45;101156.47;4986962;28;20039;-61
2022/07/05 02:28:49;;;;;;;6.40;2.03;;;;;;;16.78;59.84;101160.19;4982991;28;20054;-59
2022/07/05 02:31:16;;;;;;;5.55;1.60;;;;;;;16.76;59.45;101157.66;4982950;28;20062;-57
2022/07/05 02:33:43;;;;;;;2.58;1.45;;;;;;;16.73;59.47;101160.53;4984552;28;20057;-62
2022/07/05 02:36:12;;;;;;;2.65;1.90;;;;;;;16.70;60.35;101161.56;4985978;28;20054;-60
2022/07/05 02:38:40;;;;;;;4.00;1.50;;;;;;;16.65;60.61;101165.53;4980455;28;20130;-61
2022/07/05 02:41:08;;;;;;;5.75;1.63;;;;;;;16.60;60.77;101163.25;4982699;28;20066;-59
2022/07/05 02:43:38;;;;;;;4.10;1.83;;;;;;;16.54;61.21;101161.06;5040676;23;20055;31
2022/07/05 02:46:06;;;;;;;3.45;1.48;;;;;;;16.51;61.95;101160.44;4996818;28;20045;-58
2022/07/05 02:48:39;;;;;;;4.97;1.60;;;;;;;16.45;62.05;101156.44;5002207;28;20062;-59
2022/07/05 02:51:10;;;;;;;2.95;1.52;;;;;;;16.43;62.24;101163.66;5002418;28;20046;-59
2022/07/05 02:53:37;;;;;;;2.80;1.42;;;;;;;16.40;61.97;101159.44;5006825;28;20066;-60
2022/07/05 02:56:04;;;;;;;7.60;1.40;;;;;;;16.39;62.65;101159.53;5003529;28;20149;-58
2022/07/05 02:58:32;;;;;;;4.03;1.55;;;;;;;16.35;63.20;101155.44;5010966;28;20061;-56
2022/07/05 03:00:59;;;;;;;5.72;1.95;;;;;;;16.31;63.44;101165.44;5006054;28;20057;-61
2022/07/05 03:03:26;;;;;;;4.85;1.90;;;;;;;16.29;64.26;101166.50;5002877;28;20038;-59
2022/07/05 03:05:53;;;;;;;7.53;1.70;;;;;;;16.27;64.15;101163.97;5006026;28;20054;-59
2022/07/05 03:08:20;;;;;;;3.83;1.80;;;;;;;16.24;64.06;101166.00;5002317;28;20054;-58
2022/07/05 03:10:48;;;;;;;6.55;1.60;;;;;;;16.22;64.09;101170.59;5002947;28;20517;-59
2022/07/05 03:13:15;;;;;;;3.88;1.52;;;;;;;16.20;64.97;101176.84;5013963;28;20071;-58
2022/07/05 03:15:42;;;;;;;5.78;1.45;;;;;;;16.20;64.78;101179.50;5007666;28;20057;-57
2022/07/05 03:18:10;;;;;;;3.38;1.48;;;;;;;16.20;64.60;101184.81;5001645;28;20062;-60
2022/07/05 03:20:37;;;;;;;6.00;1.80;;;;;;;16.22;64.62;101181.22;5007038;28;20053;-60
2022/07/05 03:23:04;;;;;;;3.15;1.83;;;;;;;16.23;64.75;101182.91;5005675;28;20053;-59
2022/07/05 03:25:32;;;;;;;4.22;1.27;;;;;;;16.22;65.07;101187.38;5002354;28;20041;-58
2022/07/05 03:27:59;;;;;;;3.90;1.52;;;;;;;16.20;65.43;101183.97;5006400;28;20533;-57
2022/07/05 03:30:26;;;;;;;6.28;1.50;;;;;;;16.19;65.39;101180.47;4988117;28;20049;-61
2022/07/05 03:32:53;;;;;;;2.80;1.30;;;;;;;16.18;66.31;101181.44;4989144;28;20478;-60
2022/07/05 03:35:21;;;;;;;3.42;1.63;;;;;;;16.19;66.53;101185.78;5002642;28;20054;-59
2022/07/05 03:37:48;;;;;;;5.50;1.90;;;;;;;16.20;67.00;101190.13;5006370;28;20086;-59
2022/07/05 03:40:15;;;;;;;7.53;1.80;;;;;;;16.22;66.57;101194.50;5000000;28;20601;-54
2022/07/05 03:42:42;;;;;;;3.97;1.30;;;;;;;16.23;66.56;101194.38;5007369;28;20414;-58
2022/07/05 03:45:10;;;;;;;3.67;1.50;;;;;;;16.24;67.07;101189.91;5002947;28;20064;-58
2022/07/05 03:47:37;;;;;;;3.65;1.45;;;;;;;16.24;67.23;101198.72;5007292;28;20045;-59
2022/07/05 03:50:04;;;;;;;4.90;1.58;;;;;;;16.26;67.04;101202.13;5001438;28;20054;-60
2022/07/05 03:52:32;;;;;;;2.78;1.38;;;;;;;16.30;67.11;101210.69;5004021;28;20050;-55
2022/07/05 03:54:59;;;;;;;4.35;1.48;;;;;;;16.32;67.38;101214.09;4985768;28;20064;-58
2022/07/05 03:57:26;;;;;;;3.90;1.38;;;;;;;16.33;67.76;101216.63;5005155;28;20518;-56
2022/07/05 03:59:54;;;;;;;2.53;1.50;;;;;;;16.35;68.48;101209.41;5004366;28;20064;-56
2022/07/05 04:02:21;;;;;;;3.95;1.60;;;;;;;16.35;68.16;101209.41;5001108;28;20514;-58
2022/07/05 04:04:48;;;;;;;4.03;1.85;;;;;;;16.37;68.21;101215.47;5003286;28;20073;-59
2022/07/05 04:07:15;;;;;;;6.38;1.38;;;;;;;16.35;68.40;101217.41;5013736;28;20064;-60
2022/07/05 04:09:42;;;;;;;6.78;2.58;;;;;;;16.40;68.30;101217.06;5009226;28;20068;-58
2022/07/05 04:12:10;;;;;;;2.78;1.55;;;;;;;16.41;67.63;101210.78;5002999;28;20042;-57
2022/07/05 04:14:37;;;;;;;5.25;1.58;;;;;;;16.45;67.57;101215.75;5007072;28;20042;-59
2022/07/05 04:17:04;;;;;;;5.05;1.38;;;;;;;16.49;67.12;101219.03;5004700;28;20057;-58
2022/07/05 04:19:31;;;;;;;2.35;1.40;;;;;;;16.54;67.11;101222.19;5004049;28;20593;-60
2022/07/05 04:21:58;;;;;;;5.57;1.80;;;;;;;16.58;66.96;101228.97;5001572;28;20511;-56
2022/07/05 04:24:26;;;;;;;2.28;1.45;;;;;;;16.61;66.88;101223.41;5005323;28;20510;-58
2022/07/05 04:26:53;;;;;;;6.38;1.83;;;;;;;16.61;66.93;101228.72;5000136;28;20133;-58
2022/07/05 04:29:20;;;;;;;5.50;1.70;;;;;;;16.61;66.73;101227.88;4990791;28;20189;-59
2022/07/05 04:31:48;;;;;;;6.30;1.70;;;;;;;16.65;66.60;101224.88;4969630;28;20062;-60
2022/07/05 04:34:15;;;;;;;3.60;1.65;;;;;;;16.71;65.84;101229.75;4992570;28;20284;-59
2022/07/05 04:36:42;;;;;;;3.30;1.42;;;;;;;16.79;65.77;101233.66;4981533;28;20045;-58
2022/07/05 04:39:10;;;;;;;3.38;1.33;;;;;;;16.85;65.00;101234.06;4997439;28;20047;-60
2022/07/05 04:41:37;;;;;;;4.82;1.40;;;;;;;16.89;64.42;101238.19;5007908;28;20045;-58
2022/07/05 04:44:04;;;;;;;3.53;1.40;;;;;;;16.96;64.32;101238.56;4996540;28;20053;-60
2022/07/05 04:46:31;;;;;;;3.33;1.73;;;;;;;17.00;63.85;101234.69;5000007;28;20045;-60
2022/07/05 04:48:58;;;;;;;8.07;2.30;;;;;;;17.05;63.65;101245.00;5009040;28;20050;-59
2022/07/05 04:51:26;;;;;;;9.43;2.05;;;;;;;17.06;63.04;101247.53;5009281;28;20537;-59
2022/07/05 04:53:53;;;;;;;7.50;2.10;;;;;;;17.10;63.06;101251.66;4985161;28;20053;-57
2022/07/05 04:56:20;;;;;;;10.02;3.00;;;;;;;17.18;62.70;101257.25;5003309;28;20045;-59
2022/07/05 04:58:47;;;;;;;9.13;3.08;;;;;;;17.25;62.67;101257.63;5003984;28;20168;-60
2022/07/05 05:01:15;;;;;;;5.68;1.98;;;;;;;17.34;62.30;101264.06;5002090;28;20067;-60
2022/07/05 05:03:42;;;;;;;3.33;1.58;;;;;;;17.38;61.67;101261.03;5005509;28;20060;-60
2022/07/05 05:06:09;;;;;;;5.50;1.50;;;;;;;17.46;61.44;101276.41;5009252;28;20522;-59
2022/07/05 05:08:36;;;;;;;6.72;2.47;;;;;;;17.52;60.97;101270.63;5015164;28;20526;-67
2022/07/05 05:11:05;;;;;;;6.10;1.50;;;;;;;17.56;60.70;101272.06;5009863;28;20537;-60
2022/07/05 05:13:32;;;;;;;6.60;1.75;;;;;;;17.64;60.82;101274.97;4999965;28;20153;-59
2022/07/05 05:15:59;;;;;;;5.50;1.20;;;;;;;17.71;60.21;101281.50;4991183;28;20065;-58
2022/07/05 05:18:27;;;;;;;6.35;1.25;;;;;;;17.76;60.38;101272.34;4993923;28;20049;-59
2022/07/05 05:20:57;;;;;;;2.97;1.60;;;;;;;17.84;59.96;101277.94;5007441;28;20054;-58
2022/07/05 05:23:24;;;;;;;4.70;1.40;;;;;;;17.90;60.19;101277.44;4990797;28;20064;-59
2022/07/05 05:25:51;;;;;;;7.30;1.60;;;;;;;17.96;59.90;101275.09;5001165;28;20402;-59
2022/07/05 05:28:18;;;;;;;6.97;1.35;;;;;;;18.04;59.72;101285.16;5003520;28;20145;-60
2022/07/05 05:30:46;;;;;;;6.90;1.30;;;;;;;18.13;59.32;101284.44;5005588;28;20054;-58
2022/07/05 05:33:14;;;;;;;7.38;1.50;;;;;;;18.21;59.18;101283.81;5005952;28;20081;-58
2022/07/05 05:35:42;;;;;;;9.30;1.58;;;;;;;18.27;58.91;101288.63;5011992;28;20406;-59
2022/07/05 05:38:09;;;;;;;8.52;1.67;;;;;;;18.33;58.86;101292.66;4984048;28;20258;-60
2022/07/05 05:40:37;;;;;;;7.00;1.33;;;;;;;18.40;58.50;101291.16;5006159;28;20065;-59
2022/07/05 05:43:05;;;;;;;2.85;1.05;;;;;;;18.46;58.20;101296.00;5014949;28;20058;-57
2022/07/05 05:45:32;;;;;;;3.22;1.50;;;;;;;18.58;57.89;101297.66;5002105;28;20137;-57
2022/07/05 05:47:59;;;;;;;15.30;2.13;;;;;;;18.61;57.43;101294.75;5015867;28;20060;-57
2022/07/05 05:50:28;;;;;;;7.35;2.13;;;;;;;18.67;57.52;101298.72;4986219;28;20045;-58
2022/07/05 05:52:55;;;;;;;5.15;1.55;;;;;;;18.78;56.90;101295.19;5002646;28;20046;-56
2022/07/05 05:55:23;;;;;;;13.80;1.48;;;;;;;18.83;56.44;101293.03;5007638;28;20058;-58
2022/07/05 05:57:51;;;;;;;3.55;1.20;;;;;;;18.93;55.88;101296.59;5003405;28;20053;-57
2022/07/05 06:00:19;;;;;;;11.13;1.83;;;;;;;18.93;54.86;101297.44;4991420;28;20058;-59
2022/07/05 06:02:49;;;;;;;3.75;1.30;;;;;;;19.00;54.81;101300.44;5007385;28;20658;-59
2022/07/05 06:05:17;;;;;;;5.18;1.45;;;;;;;19.08;54.44;101300.66;5006380;28;20066;-57
2022/07/05 06:07:48;;;;;;;7.10;1.75;;;;;;;19.18;54.00;101311.38;5004556;28;20049;-57
2022/07/05 06:10:23;;;;;;;3.38;1.38;;;;;;;19.27;53.50;101305.28;5007502;28;20066;-58
2022/07/05 06:12:51;;;;;;;4.88;1.55;;;;;;;19.37;53.78;101313.38;5009105;28;20076;-59
2022/07/05 06:15:19;;;;;;;5.95;1.58;;;;;;;19.47;53.49;101311.59;5002914;28;20073;-57
2022/07/05 06:17:46;;;;;;;5.80;1.67;;;;;;;19.59;53.03;101320.41;5009660;28;20431;-59
2022/07/05 06:20:21;;;;;;;6.72;1.60;;;;;;;19.70;52.78;101315.84;5006857;28;20123;-58
2022/07/05 06:22:49;;;;;;;2.33;1.08;;;;;;;19.83;52.26;101325.47;5007738;28;20050;-60
2022/07/05 06:25:17;;;;;;;3.35;1.15;;;;;;;19.92;51.51;101319.31;5005452;28;20066;-59
2022/07/05 06:27:53;;;;;;;4.78;1.40;;;;;;;20.02;51.46;101328.22;5010145;28;20449;-60
2022/07/05 06:30:21;;;;;;;4.65;1.48;;;;;;;20.17;51.11;101326.00;5003944;28;20064;-58
2022/07/05 06:32:49;;;;;;;4.40;1.10;;;;;;;20.29;50.81;101330.28;5000624;28;20064;-60
2022/07/05 06:35:17;;;;;;;9.90;1.67;;;;;;;20.35;50.55;101329.72;5002626;28;20526;-56
2022/07/05 06:37:45;;;;;;;13.48;1.73;;;;;;;20.34;50.42;101341.41;5005433;28;20054;-57
2022/07/05 06:40:16;;;;;;;9.00;1.63;;;;;;;20.37;49.89;101330.47;5002572;28;20064;-57
2022/07/05 06:42:44;;;;;;;6.85;1.60;;;;;;;20.39;50.04;101331.16;4994373;28;20092;-58
2022/07/05 06:45:11;;;;;;;12.57;1.73;;;;;;;20.54;49.82;101330.81;5008225;28;20276;-58
2022/07/05 06:47:39;;;;;;;7.03;1.80;;;;;;;20.63;49.79;101332.66;5008852;28;20046;-57
2022/07/05 06:50:06;;;;;;;11.73;1.63;;;;;;;20.74;49.53;101336.03;5008014;28;20073;-59
2022/07/05 06:52:34;;;;;;;8.98;1.88;;;;;;;20.85;49.56;101332.41;5006780;28;20072;-61
2022/07/05 06:55:01;;;;;;;4.82;1.27;;;;;;;20.86;48.82;101334.09;5002254;28;20057;-57
2022/07/05 06:57:28;;;;;;;4.60;1.50;;;;;;;20.80;48.98;101329.28;4986845;28;20054;-58
2022/07/05 06:59:57;;;;;;;2.28;1.27;;;;;;;20.80;49.21;101339.13;5005192;28;20699;-59
2022/07/05 07:02:26;;;;;;;4.07;1.35;;;;;;;20.78;49.09;101346.47;4999074;28;20557;-58
2022/07/05 07:04:53;;;;;;;2.67;1.48;;;;;;;20.76;49.33;101351.09;5002943;28;20064;-59
2022/07/05 07:10:24;;;;;;;8.38;1.40;;;;;;;20.55;48.92;101345.88;5000776;28;20502;-57
2022/07/05 07:12:58;;;;;;;6.07;1.60;;;;;;;20.41;49.68;101347.06;5007285;28;20045;-59
2022/07/05 07:15:25;;;;;;;4.70;1.50;;;;;;;20.68;49.36;101341.97;5003522;28;20061;-57
2022/07/05 07:17:52;;;;;;;5.63;1.70;;;;;;;20.92;49.17;101346.91;5008786;28;20363;-56
2022/07/05 07:20:20;;;;;;;6.82;1.52;;;;;;;20.88;48.62;101344.66;4985987;28;20066;-58
2022/07/05 07:22:47;;;;;;;4.22;1.45;;;;;;;21.12;48.89;101338.88;5004248;28;20058;-59
2022/07/05 07:25:14;;;;;;;8.10;1.60;;;;;;;21.30;48.00;101339.88;5004480;28;20077;-58
2022/07/05 07:27:46;;;;;;;4.18;1.27;;;;;;;21.29;47.31;101337.31;5008689;28;20049;-56
2022/07/05 07:30:15;;;;;;;5.00;1.75;;;;;;;21.10;47.32;101339.03;4998813;28;20050;-60
2022/07/05 07:32:42;;;;;;;8.60;1.67;;;;;;;21.06;46.67;101339.44;5002369;28;20072;-55
2022/07/05 07:35:10;;;;;;;11.43;1.60;;;;;;;21.14;46.63;101331.56;4996072;28;20049;-56
2022/07/05 07:37:37;;;;;;;5.03;1.40;;;;;;;21.19;46.37;101330.13;5005071;28;20125;-59
2022/07/05 07:40:05;;;;;;;2.40;1.40;;;;;;;21.30;46.63;101333.63;5007173;28;20058;-58
2022/07/05 07:42:32;;;;;;;4.30;2.10;;;;;;;21.50;45.98;101327.31;5006835;28;20058;-57
2022/07/05 07:45:03;;;;;;;4.28;1.75;;;;;;;21.68;45.83;101333.63;5001197;28;20050;-57
2022/07/05 07:47:31;;;;;;;11.57;1.92;;;;;;;21.91;45.24;101342.13;5003818;28;20600;-58
2022/07/05 07:49:58;;;;;;;13.20;1.75;;;;;;;21.88;44.08;101337.06;5010447;28;20058;-59
2022/07/05 07:52:25;;;;;;;5.75;1.42;;;;;;;21.96;43.72;101334.50;5000936;28;20050;-59
2022/07/05 07:54:53;;;;;;;18.13;2.13;;;;;;;21.74;43.80;101332.19;5009233;28;20050;-58
2022/07/05 07:57:20;;;;;;;5.68;1.50;;;;;;;21.81;44.03;101329.78;5002062;28;20058;-58
2022/07/05 07:59:47;;;;;;;6.85;1.42;;;;;;;21.76;44.43;101330.22;5004587;28;20049;-59
2022/07/05 08:02:15;;;;;;;7.78;1.52;;;;;;;21.66;44.42;101324.88;5002329;28;20058;-60
2022/07/05 08:04:42;;;;;;;5.60;1.88;;;;;;;21.78;43.98;101325.53;5012194;28;20054;-58
2022/07/05 08:07:10;;;;;;;10.73;1.58;;;;;;;22.06;44.13;101322.88;5001296;28;20068;-59
2022/07/05 08:09:37;;;;;;;6.28;1.55;;;;;;;22.29;43.72;101334.09;5001298;28;20510;-58
2022/07/05 08:12:05;;;;;;;7.03;1.27;;;;;;;22.24;42.43;101332.72;5001151;28;20050;-59
2022/07/05 08:14:33;;;;;;;7.75;1.63;;;;;;;22.27;41.81;101333.41;5007341;28;20045;-58
2022/07/05 08:17:00;;;;;;;3.38;1.25;;;;;;;21.99;41.98;101334.22;5000050;28;20375;-58
2022/07/05 08:22:13;;;;;;;3.03;1.35;;;;;;;22.23;41.16;101328.34;5003772;28;20050;-59
2022/07/05 08:24:40;;;;;;;8.40;1.60;;;;;;;22.30;41.14;101335.81;5002470;28;20054;-57
2022/07/05 08:27:08;;;;;;;1.88;1.17;;;;;;;22.24;41.70;101327.38;4998956;28;20046;-58
2022/07/05 08:29:36;;;;;;;1.35;0.85;;;;;;;22.27;42.11;101320.00;5000940;28;20061;-59
2022/07/05 08:32:04;;;;;;;7.03;1.05;;;;;;;22.17;42.29;101331.63;4998172;28;20054;-58
2022/07/05 08:34:31;;;;;;;4.78;1.30;;;;;;;22.06;42.94;101326.41;4997872;28;20050;-58
2022/07/05 08:36:58;;;;;;;6.60;1.80;;;;;;;22.22;42.31;101332.03;4982247;28;20046;-57
2022/07/05 08:39:26;;;;;;;3.80;1.45;;;;;;;22.27;42.15;101322.69;5009895;28;20053;-60
2022/07/05 08:41:54;;;;;;;4.47;1.33;;;;;;;22.37;42.02;101331.53;5005768;28;20062;-57
2022/07/05 08:44:23;;;;;;;2.97;1.30;;;;;;;22.47;41.75;101330.47;5016246;23;20065;-82
2022/07/05 08:46:52;;;;;;;4.53;1.30;;;;;;;22.30;42.07;101330.44;4981937;28;20046;-79
2022/07/05 08:49:25;;;;;;;4.93;1.50;;;;;;;22.32;42.52;101326.59;4976869;28;20046;-80
2022/07/05 08:51:54;;;;;;;3.75;1.17;;;;;;;22.44;42.53;101337.97;4979047;28;20122;-80
2022/07/05 08:54:23;;;;;;;2.03;1.05;;;;;;;22.36;42.68;101325.31;4961051;28;20058;-81
2022/07/05 08:56:51;;;;;;;7.13;1.67;;;;;;;22.34;42.60;101324.63;4934747;28;20046;-80
2022/07/05 08:59:38;;;;;;;3.00;1.35;;;;;;;22.47;42.62;101327.81;4985997;23;20145;-62
2022/07/05 09:02:10;;;;;;;2.78;1.40;;;;;;;22.63;42.83;101327.13;4977761;28;20085;-62
2022/07/05 09:04:42;;;;;;;13.80;1.48;;;;;;;22.85;42.67;101322.31;4995547;28;20062;-62
2022/07/05 09:07:10;;;;;;;5.10;1.63;;;;;;;22.94;42.16;101327.63;4971741;28;20051;-62
2022/07/05 09:09:43;;;;;;;4.80;1.50;;;;;;;22.97;41.50;101308.53;4961897;28;20046;-61
2022/07/05 09:12:12;;;;;;;4.28;1.73;;;;;;;22.92;41.90;101316.22;4962682;28;20081;-62
2022/07/05 09:14:55;;;;;;;4.65;1.10;;;;;;;23.12;41.38;101321.41;4961332;28;20058;-62
2022/07/05 09:17:23;;;;;;;5.10;1.20;;;;;;;22.92;41.75;101321.59;4969049;28;20066;-62
2022/07/05 09:20:09;;;;;;;4.40;1.50;;;;;;;23.14;41.64;101327.44;4978445;28;20046;-64
2022/07/05 09:22:53;;;;;;;5.35;1.17;;;;;;;23.17;41.79;101325.31;4965221;28;20063;-63
2022/07/05 09:25:28;;;;;;;23.25;3.58;;;;;;;23.15;41.53;101316.56;4959407;28;20051;-62
2022/07/05 09:28:03;;;;;;;10.85;1.88;;;;;;;23.17;41.56;101316.41;4966054;28;20444;-62
2022/07/05 09:30:38;;;;;;;6.03;1.55;;;;;;;23.24;40.64;101320.16;4966598;28;20065;-62
2022/07/05 09:33:10;;;;;;;7.88;1.77;;;;;;;23.18;40.71;101315.41;4960556;28;21847;-62
2022/07/05 09:35:40;;;;;;;3.53;1.30;;;;;;;23.27;40.69;101306.41;4968348;28;20430;-62
2022/07/05 09:38:20;;;;;;;7.78;1.25;;;;;;;23.36;40.77;101297.41;4966920;28;20149;-64
2022/07/05 09:41:00;;;;;;;6.90;1.63;;;;;;;23.46;39.86;101298.16;4972638;28;20389;-63
2022/07/05 09:43:28;;;;;;;9.52;1.45;;;;;;;23.35;40.10;101303.78;4966191;28;20061;-61
2022/07/05 09:46:03;;;;;;;12.63;1.92;;;;;;;23.28;40.83;101312.63;4967101;28;20055;-62
2022/07/05 09:48:32;;;;;;;6.17;2.17;;;;;;;23.42;39.95;101302.16;4967547;28;20047;-63
2022/07/05 09:51:12;;;;;;;8.35;1.98;;;;;;;23.62;39.37;101301.94;4951937;28;20050;-61
2022/07/05 09:54:00;;;;;;;10.25;1.73;;;;;;;23.64;39.61;101311.59;4965443;28;20629;-63
2022/07/05 09:56:51;;;;;;;19.73;1.90;;;;;;;23.40;40.30;101308.69;4971391;28;20058;-63
2022/07/05 09:59:20;;;;;;;9.48;2.03;;;;;;;23.37;40.29;101309.00;4981842;28;20058;-62
2022/07/05 10:01:49;;;;;;;8.52;1.88;;;;;;;23.30;40.48;101311.47;4945657;28;20845;-62
2022/07/05 10:04:16;;;;;;;11.25;1.70;;;;;;;23.48;40.59;101296.16;4973922;28;20522;-63
2022/07/05 10:06:44;;;;;;;7.88;1.52;;;;;;;23.70;40.16;101304.72;4967459;28;20082;-63
2022/07/05 10:09:12;;;;;;;18.02;1.85;;;;;;;23.96;39.82;101305.53;4966083;28;20051;-63
2022/07/05 10:11:40;;;;;;;4.53;1.50;;;;;;;23.84;39.44;101312.19;4960942;28;20133;-63
2022/07/05 10:14:11;;;;;;;6.55;1.52;;;;;;;23.81;39.68;101304.44;4968340;28;20046;-63
2022/07/05 10:16:39;;;;;;;19.38;2.20;;;;;;;23.85;39.28;101304.97;4983410;28;20069;-63
2022/07/05 10:19:08;;;;;;;8.05;1.83;;;;;;;23.95;39.74;101297.59;4973484;28;20050;-62
2022/07/05 10:21:36;;;;;;;5.00;1.88;;;;;;;24.21;39.58;101305.63;4946443;28;20054;-63
2022/07/05 10:24:23;;;;;;;5.18;1.45;;;;;;;24.11;39.63;101304.91;4965300;28;20053;-63
2022/07/05 10:26:50;;;;;;;3.28;1.65;;;;;;;24.46;38.78;101293.97;4946111;28;20068;-63
2022/07/05 10:29:18;;;;;;;9.55;1.63;;;;;;;24.65;38.52;101311.66;4976807;28;20058;-63
2022/07/05 10:31:45;;;;;;;10.95;1.75;;;;;;;24.89;37.76;101310.00;4962990;28;20464;-63
2022/07/05 10:34:14;;;;;;;8.95;1.52;;;;;;;24.70;37.72;101309.31;4964309;28;20054;-63
2022/07/05 10:37:01;;;;;;;6.15;1.20;;;;;;;24.71;38.10;101311.00;4962542;28;20051;-62
2022/07/05 10:39:28;;;;;;;6.07;1.70;;;;;;;24.82;36.85;101309.00;4968289;28;20518;-62
2022/07/05 10:41:56;;;;;;;7.82;1.80;;;;;;;24.61;36.81;101310.31;4977556;28;20062;-63
2022/07/05 10:44:32;;;;;;;5.18;1.98;;;;;;;24.49;36.66;101315.16;4947338;28;20085;-63
2022/07/05 10:47:13;;;;;;;3.70;1.52;;;;;;;24.11;37.29;101318.38;4949234;28;20506;-63
2022/07/05 10:49:40;;;;;;;5.90;1.45;;;;;;;24.54;37.17;101313.81;4963504;28;20105;-63
2022/07/05 10:52:25;;;;;;;12.57;2.05;;;;;;;24.58;37.12;101299.03;4962832;28;20117;-62
2022/07/05 10:55:17;;;;;;;8.82;1.40;;;;;;;25.13;36.89;101303.84;4976156;28;20057;-63
2022/07/05 10:57:44;;;;;;;7.30;1.85;;;;;;;25.75;35.76;101307.56;4968347;28;20043;-63
2022/07/05 11:00:11;;;;;;;4.40;1.88;;;;;;;25.90;35.21;101301.53;4966480;28;20467;-62
2022/07/05 11:02:39;;;;;;;5.95;1.55;;;;;;;25.18;35.99;101310.38;4967504;28;20659;-59
2022/07/05 11:05:06;;;;;;;5.22;1.85;;;;;;;24.65;36.59;101306.28;4970227;28;20941;-62
2022/07/05 11:07:59;;;;;;;10.27;1.90;;;;;;;24.71;36.98;101297.53;4948291;28;20061;-62
2022/07/05 11:10:26;;;;;;;6.68;1.40;;;;;;;24.84;36.64;101301.59;4950372;28;20065;-60
2022/07/05 11:12:53;;;;;;;9.00;1.70;;;;;;;24.43;37.64;101298.81;4968748;28;20073;-62
2022/07/05 11:15:20;;;;;;;6.75;1.35;;;;;;;24.38;37.80;101306.56;4964630;28;20391;-62
2022/07/05 11:17:48;;;;;;;20.83;1.95;;;;;;;24.37;37.77;101312.94;4964581;28;20066;-61
2022/07/05 11:20:30;;;;;;;8.85;1.80;;;;;;;24.71;37.25;101313.69;4959981;28;20051;-62
2022/07/05 11:23:02;;;;;;;8.68;1.50;;;;;;;24.60;37.67;101307.78;4970319;28;20047;-61
2022/07/05 11:25:31;;;;;;;6.57;1.52;;;;;;;24.56;37.35;101312.66;4967887;28;20062;-62
2022/07/05 11:28:00;;;;;;;9.93;1.67;;;;;;;24.52;37.36;101313.16;4957647;28;20043;-62
2022/07/05 11:30:28;;;;;;;6.47;1.38;;;;;;;24.45;37.96;101312.94;4962841;28;20054;-62
2022/07/05 11:32:58;;;;;;;7.60;1.42;;;;;;;24.90;36.34;101307.16;4964703;28;20058;-63
2022/07/05 11:35:33;;;;;;;7.45;1.48;;;;;;;24.62;36.90;101316.53;4960406;28;20047;-63
2022/07/05 11:38:02;;;;;;;;;;;;;;;24.75;36.69;101309.66;4970985;28;20074;-61